Time;durP1;ratioP1;P1;durP2;ratioP2;P2;SDS_P1;SDS_P2;PMS_P1;PMS_P2;Temp;Humidity;BMP_temperature;BMP_pressure;BME280_temperature;BME280_humidity;BME280_pressure;Samples;Min_cycle;Max_cycle;Signal;HPM_P1;HPM_P2
2022/03/07 00:00:00;;;;;;;14.45;10.10;;;;;;;-1.36;57.27;102080.06;688154;28;1260;-91
2022/03/07 00:00:20;;;;;;;14.20;9.90;;;;;;;-1.33;56.89;102085.47;690950;28;1297;-90
2022/03/07 00:00:43;;;;;;;15.23;9.95;;;;;;;-1.33;57.27;102085.47;691145;28;846;-90
2022/03/07 00:01:04;;;;;;;13.63;9.55;;;;;;;-1.28;56.91;102086.84;688245;28;1282;-90
2022/03/07 00:01:26;;;;;;;13.00;9.93;;;;;;;-1.25;57.10;102099.94;691211;28;1601;-91
2022/03/07 00:01:47;;;;;;;13.02;10.18;;;;;;;-1.31;56.96;102081.44;690315;28;1346;-90
2022/03/07 00:02:09;;;;;;;13.48;10.50;;;;;;;-1.26;56.79;102087.88;690903;28;1261;-90
2022/03/07 00:02:30;;;;;;;14.02;10.43;;;;;;;-1.31;56.98;102078.88;688363;28;1270;-89
2022/03/07 00:02:50;;;;;;;13.90;10.47;;;;;;;-1.18;57.03;102101.47;690986;28;1258;-90
2022/03/07 00:03:11;;;;;;;13.85;10.32;;;;;;;-1.26;57.13;102082.75;688333;28;1092;-90
2022/03/07 00:03:32;;;;;;;13.70;10.00;;;;;;;-1.31;56.73;102073.75;696517;28;1138;-90
2022/03/07 00:03:56;;;;;;;12.83;9.70;;;;;;;-1.18;57.05;102102.34;691104;28;1069;-90
2022/03/07 00:04:17;;;;;;;13.65;9.85;;;;;;;-1.24;56.75;102090.63;690972;28;1467;-89
2022/03/07 00:04:38;;;;;;;13.13;9.85;;;;;;;-1.29;56.48;102075.69;693879;28;853;-89
2022/03/07 00:04:58;;;;;;;14.13;9.80;;;;;;;-1.23;56.82;102085.66;696607;28;995;-91
2022/03/07 00:05:19;;;;;;;14.00;10.00;;;;;;;-1.17;56.91;102095.56;693722;28;1125;-89
2022/03/07 00:05:40;;;;;;;13.87;10.10;;;;;;;-1.15;56.81;102092.41;693022;28;1112;-88
2022/03/07 00:06:00;;;;;;;13.20;10.30;;;;;;;-1.23;56.48;102075.41;696583;28;1123;-88
2022/03/07 00:06:22;;;;;;;13.77;10.75;;;;;;;-1.19;56.93;102079.16;693737;28;909;-88
2022/03/07 00:06:47;;;;;;;14.93;11.20;;;;;;;-1.16;56.64;102085.50;691103;28;1349;-87
2022/03/07 00:07:07;;;;;;;14.80;11.23;;;;;;;-1.15;56.54;102087.28;688185;28;1215;-88
2022/03/07 00:07:28;;;;;;;14.50;10.57;;;;;;;-1.12;56.71;102086.69;690575;28;1953;-88
2022/03/07 00:07:48;;;;;;;15.50;10.43;;;;;;;-1.06;56.72;102096.63;691225;28;1200;-88
2022/03/07 00:08:09;;;;;;;13.63;9.80;;;;;;;-1.13;56.44;102083.22;691086;28;1204;-88
2022/03/07 00:08:29;;;;;;;13.50;10.10;;;;;;;-0.99;56.39;102099.03;693887;28;864;-88
2022/03/07 00:08:50;;;;;;;11.67;9.93;;;;;;;-1.09;56.28;102079.28;693377;28;1190;-88
2022/03/07 00:09:11;;;;;;;12.30;10.10;;;;;;;-1.01;56.44;102093.75;690932;28;1363;-87
2022/03/07 00:09:32;;;;;;;12.55;9.93;;;;;;;-1.11;56.48;102083.38;687866;28;1413;-88
2022/03/07 00:09:53;;;;;;;13.15;9.82;;;;;;;-1.09;56.43;102076.72;690712;28;1280;-87
2022/03/07 00:10:13;;;;;;;13.90;10.00;;;;;;;-1.00;56.29;102092.09;691016;28;1186;-88
2022/03/07 00:10:34;;;;;;;14.82;10.32;;;;;;;-0.99;56.35;102093.91;693794;28;1241;-88
2022/03/07 00:10:54;;;;;;;16.00;10.30;;;;;;;-1.00;55.89;102084.41;696341;28;1236;-88
2022/03/07 00:11:16;;;;;;;16.63;10.13;;;;;;;-0.98;56.73;102090.56;693819;28;981;-88
2022/03/07 00:11:37;;;;;;;15.57;10.18;;;;;;;-0.97;56.34;102082.13;693925;28;766;-86
2022/03/07 00:11:58;;;;;;;14.65;10.40;;;;;;;-0.98;56.14;102077.75;693850;28;927;-88
2022/03/07 00:12:18;;;;;;;12.95;10.45;;;;;;;-0.93;56.04;102091.00;688282;28;1260;-88
2022/03/07 00:12:39;;;;;;;12.47;10.13;;;;;;;-0.95;56.12;102080.59;691002;28;1269;-88
2022/03/07 00:13:00;;;;;;;11.50;10.00;;;;;;;-0.93;56.26;102083.31;693778;28;1198;-88
2022/03/07 00:13:21;;;;;;;12.90;10.18;;;;;;;-0.95;56.19;102067.78;693680;28;1314;-88
2022/03/07 00:13:41;;;;;;;13.07;10.15;;;;;;;-0.88;56.02;102085.56;693906;28;783;-88
2022/03/07 00:14:02;;;;;;;12.85;9.55;;;;;;;-0.79;56.23;102095.81;691048;28;1089;-88
2022/03/07 00:14:23;;;;;;;12.98;9.57;;;;;;;-0.80;56.11;102095.66;691223;28;795;-88
2022/03/07 00:16:06;;;;;;;12.90;9.90;;;;;;;-0.85;55.89;102083.31;693806;28;1388;-88
2022/03/07 00:16:26;;;;;;;12.80;9.50;;;;;;;-0.84;56.16;102081.63;694046;28;1128;-88
2022/03/07 00:16:47;;;;;;;12.45;9.45;;;;;;;-0.81;55.82;102078.47;696513;28;1302;-89
2022/03/07 00:17:08;;;;;;;12.43;9.70;;;;;;;-0.77;56.00;102085.69;690865;28;1236;-88
2022/03/07 00:17:28;;;;;;;14.15;10.43;;;;;;;-0.75;55.64;102089.31;688394;28;1192;-90
2022/03/07 00:17:49;;;;;;;14.10;10.70;;;;;;;-0.79;55.98;102083.00;691087;28;1299;-88
2022/03/07 00:18:09;;;;;;;14.40;10.83;;;;;;;-0.79;55.56;102088.13;690658;28;1134;-88
2022/03/07 00:18:30;;;;;;;11.90;10.20;;;;;;;-0.76;55.49;102093.53;693406;28;1262;-88
2022/03/07 00:18:51;;;;;;;11.43;10.00;;;;;;;-0.80;55.96;102080.28;693681;28;1200;-88
2022/03/07 00:19:12;;;;;;;11.68;9.80;;;;;;;-0.75;55.51;102089.31;693888;28;999;-88
2022/03/07 00:19:33;;;;;;;14.63;10.02;;;;;;;-0.77;55.70;102078.00;693310;28;1255;-87
2022/03/07 00:19:54;;;;;;;15.57;9.90;;;;;;;-0.76;55.60;102080.72;696239;28;1043;-88
2022/03/07 00:20:45;;;;;;;17.02;10.30;;;;;;;-0.65;55.61;102099.69;696495;28;979;-88
2022/03/07 00:21:08;;;;;;;13.57;9.80;;;;;;;-0.70;55.50;102088.06;690801;28;1251;-88
2022/03/07 00:21:28;;;;;;;13.40;9.95;;;;;;;-0.75;55.48;102084.19;688364;28;1247;-88
2022/03/07 00:21:49;;;;;;;13.20;10.00;;;;;;;-0.70;55.40;102088.06;688170;28;1173;-90
2022/03/07 00:22:09;;;;;;;13.40;10.00;;;;;;;-0.71;55.36;102078.56;688420;28;1169;-90
2022/03/07 00:22:30;;;;;;;13.05;9.98;;;;;;;-0.71;55.54;102078.56;688296;28;1186;-91
2022/03/07 00:22:50;;;;;;;14.00;10.10;;;;;;;-0.73;55.46;102069.84;688217;28;1215;-88
2022/03/07 00:23:11;;;;;;;14.17;10.20;;;;;;;-0.69;55.21;102084.78;688352;28;1271;-88
2022/03/07 00:23:32;;;;;;;13.95;10.20;;;;;;;-0.69;55.62;102079.66;692707;28;1264;-90
2022/03/07 00:23:56;;;;;;;13.70;10.60;;;;;;;-0.64;55.46;102092.91;690923;28;1405;-89
2022/03/07 00:24:17;;;;;;;14.18;11.06;;;;;;;-0.71;55.59;102079.50;691079;28;1250;-89
2022/03/07 00:24:37;;;;;;;12.50;10.53;;;;;;;-0.66;55.26;102090.19;693609;28;1165;-90
2022/03/07 00:25:04;;;;;;;12.50;10.27;;;;;;;-0.62;55.09;102097.41;690751;28;1057;-90
2022/03/07 00:25:25;;;;;;;12.70;10.30;;;;;;;-0.67;55.14;102087.47;693646;28;811;-89
2022/03/07 00:25:45;;;;;;;13.25;10.45;;;;;;;-0.60;55.23;102103.59;693684;28;834;-90
2022/03/07 00:26:06;;;;;;;12.40;10.00;;;;;;;-0.68;55.06;102086.59;693545;28;1227;-90
2022/03/07 00:26:27;;;;;;;13.75;10.35;;;;;;;-0.60;55.33;102092.41;690951;28;1351;-91
2022/03/07 00:26:48;;;;;;;16.00;10.50;;;;;;;-0.62;55.05;102096.50;690957;28;1286;-90
2022/03/07 00:27:08;;;;;;;16.53;10.53;;;;;;;-0.65;54.89;102088.50;690782;28;1231;-90
2022/03/07 00:27:29;;;;;;;15.82;10.38;;;;;;;-0.55;55.08;102106.59;693688;28;1918;-90
2022/03/07 00:27:51;;;;;;;13.85;10.23;;;;;;;-0.64;55.03;102083.53;687922;28;1376;-90
2022/03/07 00:28:13;;;;;;;13.90;10.40;;;;;;;-0.54;55.12;102099.78;693566;28;1168;-90
2022/03/07 00:28:34;;;;;;;12.73;9.88;;;;;;;-0.67;55.16;102078.13;693819;28;763;-90
2022/03/07 00:29:17;;;;;;;13.32;9.85;;;;;;;-0.49;54.93;102108.81;690959;28;1198;-89
2022/03/07 00:29:38;;;;;;;13.32;10.43;;;;;;;-0.53;55.05;102105.06;690190;28;1014;-90
2022/03/07 00:30:00;;;;;;;13.13;10.27;;;;;;;-0.58;54.89;102089.25;688219;28;1460;-90
2022/03/07 00:30:21;;;;;;;12.98;9.77;;;;;;;-0.51;54.99;102094.97;688404;28;1091;-90
2022/03/07 00:30:43;;;;;;;12.85;9.43;;;;;;;-0.58;55.14;102079.00;688309;28;1277;-89
2022/03/07 00:31:05;;;;;;;12.27;9.40;;;;;;;-0.51;54.81;102094.97;690811;28;1187;-90
2022/03/07 00:31:26;;;;;;;13.18;9.43;;;;;;;-0.55;54.81;102085.16;688431;28;1382;-89
2022/03/07 00:31:47;;;;;;;13.10;9.82;;;;;;;-0.52;54.85;102094.03;688388;28;807;-90
2022/03/07 00:32:20;;;;;;;13.13;10.00;;;;;;;-0.50;54.86;102092.53;688269;28;1102;-90
2022/03/07 00:32:40;;;;;;;12.73;10.07;;;;;;;-0.53;54.65;102083.63;690968;28;986;-89
2022/03/07 00:33:01;;;;;;;12.10;9.73;;;;;;;-0.45;54.27;102103.25;692908;28;1208;-90
2022/03/07 00:33:22;;;;;;;13.02;9.95;;;;;;;-0.47;54.76;102097.97;691037;28;1440;-88
2022/03/07 00:33:43;;;;;;;13.70;10.40;;;;;;;-0.51;54.73;102084.72;688427;28;1319;-90
2022/03/07 00:34:04;;;;;;;14.80;10.77;;;;;;;-0.41;54.58;102102.75;693541;28;1769;-89
2022/03/07 00:34:24;;;;;;;16.25;11.52;;;;;;;-0.43;54.75;102097.47;696542;28;857;-89
2022/03/07 00:34:45;;;;;;;17.13;11.57;;;;;;;-0.38;54.53;102103.03;693837;28;759;-90
2022/03/07 00:35:06;;;;;;;15.95;11.10;;;;;;;-0.46;54.81;102086.03;688010;28;1335;-89
2022/03/07 00:35:27;;;;;;;14.48;10.80;;;;;;;-0.39;54.39;102096.09;693789;28;1355;-90
2022/03/07 00:35:48;;;;;;;14.05;10.95;;;;;;;-0.43;54.38;102083.75;696466;28;1195;-90
2022/03/07 00:36:08;;;;;;;15.83;10.60;;;;;;;-0.36;54.45;102092.94;693704;28;1143;-90
2022/03/07 00:36:29;;;;;;;16.95;10.98;;;;;;;-0.37;54.31;102094.59;690940;28;1205;-90
2022/03/07 00:36:49;;;;;;;16.90;11.17;;;;;;;-0.36;54.45;102086.16;696621;28;1213;-89
2022/03/07 00:37:10;;;;;;;13.97;10.90;;;;;;;-0.26;54.39;102102.41;690918;28;1205;-90
2022/03/07 00:37:32;;;;;;;14.38;10.32;;;;;;;-0.31;54.46;102092.59;690930;28;1441;-90
2022/03/07 00:37:52;;;;;;;14.15;10.15;;;;;;;-0.28;54.35;102097.09;690914;28;1057;-90
2022/03/07 00:38:14;;;;;;;15.50;10.60;;;;;;;-0.29;54.31;102087.63;691080;28;1042;-90
2022/03/07 00:38:35;;;;;;;16.27;10.80;;;;;;;-0.28;54.34;102088.53;688333;28;1309;-90
2022/03/07 00:38:55;;;;;;;16.88;10.88;;;;;;;-0.20;54.49;102103.88;690936;28;1030;-90
2022/03/07 00:39:16;;;;;;;14.35;10.48;;;;;;;-0.22;54.18;102097.69;688164;28;1271;-90
2022/03/07 00:39:38;;;;;;;14.02;10.40;;;;;;;-0.25;54.23;102087.16;687670;28;1399;-90
2022/03/07 00:40:01;;;;;;;14.32;10.50;;;;;;;-0.22;54.39;102096.78;688081;28;1304;-90
2022/03/07 00:40:22;;;;;;;14.98;10.90;;;;;;;-0.25;54.51;102088.81;690951;28;1342;-90
2022/03/07 00:40:42;;;;;;;14.48;10.68;;;;;;;-0.23;54.05;102082.13;693665;28;1223;-90
2022/03/07 00:41:07;;;;;;;15.60;11.10;;;;;;;-0.13;54.09;102104.44;693669;28;1087;-89
2022/03/07 00:41:28;;;;;;;15.30;11.00;;;;;;;-0.23;53.98;102082.13;688175;28;1226;-89
2022/03/07 00:41:48;;;;;;;16.20;11.13;;;;;;;-0.12;54.26;102096.91;688354;28;756;-89
2022/03/07 00:42:09;;;;;;;15.98;10.60;;;;;;;-0.12;54.06;102095.97;693349;28;1193;-90
2022/03/07 00:42:31;;;;;;;15.00;10.60;;;;;;;-0.14;54.16;102089.81;691140;28;855;-89
2022/03/07 00:42:51;;;;;;;14.53;10.60;;;;;;;-0.13;53.87;102100.22;687681;28;1271;-89
2022/03/07 00:43:12;;;;;;;15.35;11.45;;;;;;;-0.17;53.70;102088.78;695922;28;1307;-90
2022/03/07 00:43:34;;;;;;;15.75;11.80;;;;;;;-0.15;53.81;102086.31;690951;28;1114;-89
2022/03/07 00:43:57;;;;;;;16.27;11.90;;;;;;;-0.09;54.06;102101.41;691128;28;1386;-90
2022/03/07 00:44:18;;;;;;;16.83;12.00;;;;;;;-0.12;53.85;102088.28;690782;28;1260;-90
2022/03/07 00:44:39;;;;;;;16.60;11.98;;;;;;;-0.12;53.88;102086.63;691049;28;819;-89
2022/03/07 00:44:59;;;;;;;16.35;11.60;;;;;;;-0.16;53.73;102077.75;693613;28;1114;-89
2022/03/07 00:45:20;;;;;;;15.90;11.00;;;;;;;-0.08;53.83;102093.84;690903;28;1198;-90
2022/03/07 00:45:41;;;;;;;15.30;10.60;;;;;;;-0.11;53.77;102091.00;688413;28;887;-90
2022/03/07 00:46:02;;;;;;;14.20;10.60;;;;;;;-0.08;53.52;102091.28;690712;28;1424;-90
2022/03/07 00:46:25;;;;;;;13.10;10.75;;;;;;;-0.09;53.71;102079.19;693688;28;1160;-89
2022/03/07 00:46:46;;;;;;;15.07;11.48;;;;;;;-0.07;53.57;102089.63;690789;28;1393;-89
2022/03/07 00:47:07;;;;;;;16.67;11.73;;;;;;;-0.02;53.43;102096.97;693504;28;1155;-90
2022/03/07 00:47:27;;;;;;;16.47;11.43;;;;;;;-0.05;53.17;102093.22;691061;28;1894;-89
2022/03/07 00:47:48;;;;;;;15.10;11.18;;;;;;;0.02;53.71;102099.81;690990;28;1045;-90
2022/03/07 00:48:08;;;;;;;17.63;11.27;;;;;;;-0.03;53.64;102095.19;690856;28;1225;-89
2022/03/07 00:48:29;;;;;;;17.40;11.40;;;;;;;-0.00;53.94;102101.34;693391;28;1195;-89
2022/03/07 00:48:51;;;;;;;18.50;11.27;;;;;;;-0.02;53.56;102091.84;693693;28;985;-90
2022/03/07 00:49:11;;;;;;;16.02;11.02;;;;;;;0.01;53.76;102095.44;690949;28;1051;-89
2022/03/07 00:49:32;;;;;;;16.65;10.73;;;;;;;-0.04;53.81;102084.75;693350;28;857;-90
2022/03/07 00:49:53;;;;;;;15.77;10.85;;;;;;;-0.06;53.69;102082.03;693318;28;1191;-89
2022/03/07 00:50:14;;;;;;;15.55;11.02;;;;;;;-0.00;53.81;102093.66;696431;28;1012;-89
2022/03/07 00:50:51;;;;;;;15.80;11.40;;;;;;;0.04;53.59;102100.88;693801;28;1157;-89
2022/03/07 00:51:12;;;;;;;15.85;11.30;;;;;;;0.04;53.59;102099.19;690864;28;1513;-90
2022/03/07 00:51:33;;;;;;;15.30;11.25;;;;;;;-0.01;53.55;102090.19;690781;28;1184;-90
2022/03/07 00:51:58;;;;;;;14.73;11.13;;;;;;;0.03;53.63;102096.50;687226;28;1428;-88
2022/03/07 00:52:19;;;;;;;14.73;10.90;;;;;;;0.05;53.69;102101.00;690161;28;1346;-89
2022/03/07 00:52:39;;;;;;;13.90;10.55;;;;;;;-0.00;53.70;102091.06;693645;28;1153;-90
2022/03/07 00:53:01;;;;;;;14.40;10.80;;;;;;;0.04;53.53;102095.75;693494;28;1281;-90
2022/03/07 00:53:24;;;;;;;13.48;10.80;;;;;;;-0.02;53.46;102084.13;693086;28;1197;-90
2022/03/07 00:53:46;;;;;;;14.80;11.13;;;;;;;0.06;53.54;102096.78;691038;28;905;-89
2022/03/07 00:54:07;;;;;;;14.68;10.90;;;;;;;0.06;53.46;102102.81;690497;28;1573;-89
2022/03/07 00:54:27;;;;;;;14.60;10.70;;;;;;;-0.02;53.48;102084.13;693529;28;1205;-90
2022/03/07 00:54:48;;;;;;;14.02;10.55;;;;;;;-0.02;53.51;102084.13;690398;28;1292;-90
2022/03/07 00:55:26;;;;;;;13.80;10.43;;;;;;;0.02;53.27;102094.69;690871;28;1184;-90
2022/03/07 00:55:47;;;;;;;16.83;11.05;;;;;;;0.06;53.60;102101.91;693630;28;945;-90
2022/03/07 00:56:27;;;;;;;15.82;11.25;;;;;;;0.01;53.36;102088.66;693523;28;1202;-89
2022/03/07 00:57:06;;;;;;;15.05;11.00;;;;;;;0.08;53.33;102100.38;688134;28;1016;-89
2022/03/07 00:57:27;;;;;;;14.95;10.85;;;;;;;0.03;53.45;102088.81;693548;28;1324;-90
2022/03/07 00:57:48;;;;;;;14.45;10.90;;;;;;;0.10;53.26;102099.78;693729;28;767;-90
2022/03/07 00:58:09;;;;;;;15.20;11.10;;;;;;;0.07;53.63;102093.44;691025;28;1224;-90
2022/03/07 00:58:29;;;;;;;15.52;11.30;;;;;;;0.04;53.44;102081.22;688194;28;1143;-90
2022/03/07 00:58:50;;;;;;;18.33;11.20;;;;;;;0.12;53.22;102100.81;693672;28;1040;-87
2022/03/07 00:59:10;;;;;;;17.23;11.10;;;;;;;0.04;53.19;102085.47;693745;28;1152;-90
2022/03/07 00:59:31;;;;;;;16.83;11.20;;;;;;;0.13;53.43;102104.28;690549;28;780;-90
2022/03/07 00:59:52;;;;;;;13.38;10.80;;;;;;;0.12;53.43;102092.22;687973;28;1208;-90
2022/03/07 01:00:13;;;;;;;14.33;11.10;;;;;;;0.11;53.39;102087.84;690947;28;1119;-89
2022/03/07 01:00:36;;;;;;;13.52;10.90;;;;;;;0.16;53.25;102103.69;691016;28;771;-90
2022/03/07 01:00:56;;;;;;;13.88;11.02;;;;;;;0.16;53.26;102107.13;693662;28;1000;-90
2022/03/07 01:01:18;;;;;;;13.50;10.90;;;;;;;0.12;53.17;102093.09;693556;28;988;-89
2022/03/07 01:01:39;;;;;;;14.30;11.10;;;;;;;0.11;53.45;102091.31;693173;28;1291;-89
2022/03/07 01:01:59;;;;;;;14.90;11.30;;;;;;;0.15;53.40;102097.63;690864;28;1155;-89
2022/03/07 01:02:20;;;;;;;17.00;11.55;;;;;;;0.15;53.27;102089.91;690655;28;1284;-89
2022/03/07 01:02:40;;;;;;;16.58;11.50;;;;;;;0.12;53.14;102087.09;693582;28;1378;-90
2022/03/07 01:03:18;;;;;;;16.45;11.50;;;;;;;0.13;53.50;102091.44;693149;28;1215;-90
2022/03/07 01:03:38;;;;;;;16.17;11.10;;;;;;;0.16;53.15;102090.84;693544;28;1444;-90
2022/03/07 01:03:59;;;;;;;17.85;11.10;;;;;;;0.15;53.21;102091.59;690903;28;1040;-90
2022/03/07 01:04:32;;;;;;;18.10;11.30;;;;;;;0.17;53.11;102096.09;690819;28;1217;-90
2022/03/07 01:04:55;;;;;;;16.20;11.38;;;;;;;0.21;53.31;102098.19;693094;28;1107;-89
2022/03/07 01:05:15;;;;;;;14.70;10.63;;;;;;;0.22;53.67;102105.13;696304;28;1209;-89
2022/03/07 01:05:36;;;;;;;13.70;10.65;;;;;;;0.24;53.34;102101.03;693519;28;1285;-90
2022/03/07 01:05:56;;;;;;;14.15;11.00;;;;;;;0.25;52.97;102105.41;690782;28;1250;-90
2022/03/07 01:06:17;;;;;;;15.30;11.70;;;;;;;0.25;53.11;102100.25;693522;28;1269;-89
2022/03/07 01:06:38;;;;;;;15.02;11.40;;;;;;;0.18;53.39;102082.47;696323;28;1306;-90
2022/03/07 01:06:58;;;;;;;15.32;11.20;;;;;;;0.21;53.32;102090.50;693569;28;1289;-89
2022/03/07 01:07:20;;;;;;;15.28;11.20;;;;;;;0.20;53.14;102083.56;696312;28;1098;-89
2022/03/07 01:07:41;;;;;;;15.80;11.63;;;;;;;0.27;53.22;102104.66;693702;28;1979;-89
2022/03/07 01:08:02;;;;;;;15.55;11.50;;;;;;;0.33;53.15;102115.47;693560;28;1184;-89
2022/03/07 01:08:23;;;;;;;15.57;11.00;;;;;;;0.24;53.14;102092.44;693564;28;1249;-89
2022/03/07 01:08:43;;;;;;;14.80;10.68;;;;;;;0.20;53.14;102088.69;693573;28;1271;-88
2022/03/07 01:09:04;;;;;;;13.60;10.52;;;;;;;0.26;53.33;102101.19;690732;28;1249;-89
2022/03/07 01:09:24;;;;;;;13.53;10.80;;;;;;;0.21;53.10;102093.06;690735;28;1170;-89
2022/03/07 01:09:45;;;;;;;17.48;11.75;;;;;;;0.21;53.12;102087.91;693058;28;1188;-89
2022/03/07 01:10:06;;;;;;;17.45;11.55;;;;;;;0.29;52.86;102105.69;692295;28;1269;-89
2022/03/07 01:10:27;;;;;;;17.92;11.50;;;;;;;0.25;53.27;102097.69;691045;28;767;-89
2022/03/07 01:10:49;;;;;;;15.13;10.73;;;;;;;0.25;53.13;102095.13;688165;28;1379;-90
2022/03/07 01:11:10;;;;;;;15.90;11.15;;;;;;;0.30;53.29;102100.69;690383;28;1268;-90
2022/03/07 01:11:31;;;;;;;14.82;11.38;;;;;;;0.28;53.09;102098.75;690994;28;851;-90
2022/03/07 01:11:51;;;;;;;14.40;11.05;;;;;;;0.27;53.08;102094.41;688096;28;1294;-90
2022/03/07 01:12:30;;;;;;;15.27;11.00;;;;;;;0.32;53.06;102101.75;693457;28;1101;-89
2022/03/07 01:12:51;;;;;;;17.52;11.23;;;;;;;0.31;53.04;102093.91;695691;28;1500;-89
2022/03/07 01:13:11;;;;;;;16.30;11.25;;;;;;;0.39;53.10;102108.34;696506;28;959;-90
2022/03/07 01:13:32;;;;;;;16.20;11.67;;;;;;;0.36;53.34;102097.78;693478;28;1272;-90
2022/03/07 01:13:52;;;;;;;15.35;11.40;;;;;;;0.36;53.02;102102.94;693641;28;1194;-89
2022/03/07 01:14:13;;;;;;;15.00;11.50;;;;;;;0.33;53.00;102097.50;688148;28;1270;-90
2022/03/07 01:14:34;;;;;;;14.45;11.10;;;;;;;0.38;53.17;102093.69;690321;28;1171;-88
2022/03/07 01:14:55;;;;;;;13.38;11.00;;;;;;;0.36;53.06;102097.78;688141;28;977;-89
2022/03/07 01:15:16;;;;;;;13.40;10.55;;;;;;;0.42;53.13;102103.50;690850;28;1309;-89
2022/03/07 01:15:37;;;;;;;14.52;11.10;;;;;;;0.31;53.19;102088.75;690813;28;1261;-89
2022/03/07 01:15:57;;;;;;;15.40;11.47;;;;;;;0.34;52.98;102092.50;685479;28;1175;-89
2022/03/07 01:16:18;;;;;;;15.38;11.35;;;;;;;0.31;53.02;102088.75;690703;28;1083;-90
2022/03/07 01:16:39;;;;;;;13.63;10.65;;;;;;;0.28;53.06;102084.25;690868;28;1160;-89
2022/03/07 01:16:59;;;;;;;13.73;10.40;;;;;;;0.35;52.90;102101.13;688163;28;965;-89
2022/03/07 01:17:20;;;;;;;15.07;10.68;;;;;;;0.42;53.06;102107.72;690889;28;1144;-89
2022/03/07 01:17:41;;;;;;;16.02;11.27;;;;;;;0.33;52.77;102097.50;693426;28;1221;-89
2022/03/07 01:18:04;;;;;;;16.15;11.68;;;;;;;0.43;52.91;102105.28;690696;28;1291;-89
2022/03/07 01:18:24;;;;;;;15.93;11.35;;;;;;;0.34;52.91;102095.06;690911;28;1320;-88
2022/03/07 01:18:45;;;;;;;15.97;11.03;;;;;;;0.34;52.91;102094.16;687975;28;1243;-90
2022/03/07 01:19:05;;;;;;;14.83;11.07;;;;;;;0.45;52.77;102102.84;688050;28;1183;-89
2022/03/07 01:19:26;;;;;;;14.18;11.30;;;;;;;0.38;52.98;102097.19;690519;28;1172;-89
2022/03/07 01:19:46;;;;;;;15.60;11.30;;;;;;;0.40;53.18;102099.84;693032;28;1415;-90
2022/03/07 01:20:09;;;;;;;16.25;11.25;;;;;;;0.34;53.10;102082.22;690537;28;1159;-89
2022/03/07 01:20:30;;;;;;;15.60;11.40;;;;;;;0.33;53.03;102076.94;689800;28;1279;-89
2022/03/07 01:20:51;;;;;;;14.45;11.23;;;;;;;0.38;52.82;102088.56;696316;28;1055;-89
2022/03/07 01:21:13;;;;;;;15.13;11.32;;;;;;;0.43;53.15;102097.59;690825;28;1249;-89
2022/03/07 01:21:33;;;;;;;15.55;11.30;;;;;;;0.38;52.91;102085.97;690779;28;1184;-88
2022/03/07 01:21:54;;;;;;;17.37;11.77;;;;;;;0.45;53.01;102101.19;690799;28;1134;-89
2022/03/07 01:22:14;;;;;;;16.38;11.38;;;;;;;0.44;53.07;102099.38;691060;28;1104;-89
2022/03/07 01:22:35;;;;;;;14.30;10.73;;;;;;;0.37;52.77;102084.19;688312;28;764;-89
2022/03/07 01:22:56;;;;;;;13.77;11.10;;;;;;;0.43;52.84;102092.44;687334;28;1255;-90
2022/03/07 01:23:17;;;;;;;14.60;11.63;;;;;;;0.40;52.97;102087.00;690826;28;1262;-90
2022/03/07 01:23:38;;;;;;;15.20;11.68;;;;;;;0.40;53.14;102079.31;688109;28;1284;-89
2022/03/07 01:23:58;;;;;;;14.98;11.30;;;;;;;0.41;52.70;102078.53;684992;28;1184;-89
2022/03/07 01:24:19;;;;;;;15.07;11.10;;;;;;;0.51;52.56;102094.03;690682;28;1190;-89
2022/03/07 01:24:40;;;;;;;16.00;11.65;;;;;;;0.51;52.83;102088.91;690880;28;846;-89
2022/03/07 01:25:02;;;;;;;16.50;11.20;;;;;;;0.58;52.66;102099.72;688081;28;1401;-89
2022/03/07 01:25:22;;;;;;;15.93;11.13;;;;;;;0.50;52.61;102086.19;690846;28;1319;-90
2022/03/07 01:25:43;;;;;;;14.40;10.53;;;;;;;0.50;52.68;102087.09;690860;28;1254;-90
2022/03/07 01:26:04;;;;;;;15.15;11.20;;;;;;;0.52;52.66;102089.78;690780;28;1120;-88
2022/03/07 01:26:24;;;;;;;17.00;11.45;;;;;;;0.59;52.82;102092.16;690934;28;1300;-89
2022/03/07 01:26:46;;;;;;;17.55;11.60;;;;;;;0.52;52.58;102084.66;688255;28;859;-90
2022/03/07 01:27:07;;;;;;;16.33;10.93;;;;;;;0.53;52.58;102077.09;688087;28;1088;-89
2022/03/07 01:27:27;;;;;;;15.07;10.60;;;;;;;0.52;52.64;102075.28;685487;28;1391;-89
2022/03/07 01:27:48;;;;;;;14.63;10.40;;;;;;;0.53;52.46;102076.19;690715;28;2013;-90
2022/03/07 01:28:09;;;;;;;14.20;10.53;;;;;;;0.54;52.55;102072.88;690375;28;1126;-90
2022/03/07 01:28:30;;;;;;;15.18;10.82;;;;;;;0.69;52.41;102099.03;688031;28;1292;-89
2022/03/07 01:28:50;;;;;;;14.67;10.77;;;;;;;0.71;52.22;102096.59;690814;28;1105;-89
2022/03/07 01:29:11;;;;;;;16.20;11.17;;;;;;;0.70;52.51;102094.78;690805;28;1274;-89
2022/03/07 01:29:31;;;;;;;14.73;11.18;;;;;;;0.62;52.16;102084.75;689415;28;1178;-89
2022/03/07 01:29:52;;;;;;;14.37;11.27;;;;;;;0.58;52.27;102074.03;687728;28;1229;-88
2022/03/07 01:30:12;;;;;;;11.90;10.43;;;;;;;0.63;52.12;102083.06;688236;28;984;-88
2022/03/07 01:31:07;;;;;;;12.70;10.68;;;;;;;0.73;51.97;102092.50;690751;28;830;-89
2022/03/07 01:31:27;;;;;;;13.10;10.48;;;;;;;0.68;51.97;102086.94;693446;28;1666;-89
2022/03/07 01:31:48;;;;;;;13.32;10.35;;;;;;;0.63;52.15;102078.84;688113;28;1362;-89
2022/03/07 01:32:09;;;;;;;13.60;10.38;;;;;;;0.64;52.12;102083.19;693554;28;1358;-90
2022/03/07 01:32:30;;;;;;;14.45;11.02;;;;;;;0.65;51.95;102073.81;692302;28;1205;-89
2022/03/07 01:32:53;;;;;;;14.88;10.93;;;;;;;0.63;51.96;102068.56;693510;28;1199;-89
2022/03/07 01:33:14;;;;;;;14.65;10.70;;;;;;;0.74;52.23;102102.00;690876;28;987;-89
2022/03/07 01:33:34;;;;;;;13.75;10.55;;;;;;;0.69;52.17;102087.84;692883;28;1263;-89
2022/03/07 01:33:55;;;;;;;14.27;11.00;;;;;;;0.67;52.00;102080.88;690625;28;1155;-89
2022/03/07 01:34:43;;;;;;;14.90;11.23;;;;;;;0.76;52.23;102096.25;693532;28;1135;-89
2022/03/07 01:35:06;;;;;;;15.57;11.25;;;;;;;0.73;51.99;102083.09;691571;28;1553;-87
2022/03/07 01:35:27;;;;;;;16.35;11.55;;;;;;;0.69;52.10;102075.91;698255;28;1248;-89
2022/03/07 01:35:48;;;;;;;15.23;11.20;;;;;;;0.71;51.84;102087.22;693395;28;1462;-90
2022/03/07 01:36:08;;;;;;;15.48;11.70;;;;;;;0.64;52.15;102075.50;690836;28;1091;-89
2022/03/07 01:36:29;;;;;;;15.20;11.80;;;;;;;0.66;51.96;102073.06;689250;28;1288;-89
2022/03/07 01:36:49;;;;;;;14.45;11.73;;;;;;;0.68;52.01;102076.66;688191;28;1013;-90
2022/03/07 01:37:10;;;;;;;14.52;11.50;;;;;;;0.71;52.37;102092.34;685449;28;1265;-90
2022/03/07 01:37:31;;;;;;;14.30;11.23;;;;;;;0.63;52.17;102080.47;688090;28;1281;-89
2022/03/07 01:38:03;;;;;;;15.18;11.80;;;;;;;0.68;52.30;102081.81;693398;28;1298;-89
2022/03/07 01:38:25;;;;;;;14.60;11.68;;;;;;;0.63;52.07;102083.97;691188;28;1259;-89
2022/03/07 01:38:46;;;;;;;13.85;11.13;;;;;;;0.63;52.20;102080.47;693150;28;1293;-89
2022/03/07 01:39:06;;;;;;;13.07;10.60;;;;;;;0.64;52.02;102075.50;693438;28;1138;-90
2022/03/07 01:39:27;;;;;;;13.50;10.90;;;;;;;0.70;52.37;102093.13;690515;28;1458;-89
2022/03/07 01:39:47;;;;;;;14.27;11.40;;;;;;;0.64;52.16;102074.56;685005;28;1208;-89
2022/03/07 01:40:09;;;;;;;15.77;11.93;;;;;;;0.69;52.38;102078.47;690574;28;1164;-89
2022/03/07 01:40:30;;;;;;;16.20;11.80;;;;;;;0.65;52.57;102073.81;693646;28;933;-89
2022/03/07 01:40:50;;;;;;;15.93;11.40;;;;;;;0.73;52.16;102082.22;690606;28;1120;-89
2022/03/07 01:41:13;;;;;;;16.45;11.48;;;;;;;0.72;52.23;102083.00;688087;28;1417;-89
2022/03/07 01:41:33;;;;;;;17.20;11.93;;;;;;;0.74;52.33;102082.38;690778;28;1313;-89
2022/03/07 01:41:54;;;;;;;16.98;11.77;;;;;;;0.73;52.22;102082.22;690763;28;1286;-89
2022/03/07 01:42:37;;;;;;;15.02;11.35;;;;;;;0.80;52.07;102095.72;688194;28;1147;-88
2022/03/07 01:42:58;;;;;;;15.55;10.75;;;;;;;0.75;52.32;102086.75;687981;28;1005;-89
2022/03/07 01:43:19;;;;;;;16.00;11.00;;;;;;;0.78;52.27;102089.56;692792;28;1198;-89
2022/03/07 01:43:39;;;;;;;14.50;11.47;;;;;;;0.78;51.88;102094.72;688075;28;1191;-89
2022/03/07 01:44:00;;;;;;;14.70;11.53;;;;;;;0.69;52.00;102070.75;690500;28;1256;-89
2022/03/07 01:44:24;;;;;;;14.90;11.57;;;;;;;0.75;52.04;102084.16;688011;28;1216;-88